Weather at Tirviá Heliport

Public forecast

Using degrees Celsius for public forecast. Weather courtesy of forecast.io.

Closest aviation weather report (METAR) to Tirviá Heliport

Closest report is Pirineus - la Seu d'Urgel Airport, 13.1 nm (24.3 km) SE. Retrieved 2020/09/19 11:30 UTC (7 minutes ago):

LESU 191130Z VRB03KT 9999 FEW030 SCT065 20/14 Q1017

Closest aviation forecast (TAF) to Tirviá Heliport

Closest forecast is Pirineus - la Seu d'Urgel Airport, 13.1 nm (24.3 km) SE. Retrieved 2020/09/19 09:00 UTC (3 hours ago):

TAF LESU 190800Z 1909/2009 VRB03KT 9999 FEW010 BKN020 TX24/1914Z TN09/2005Z TEMPO 1911/1916 VRB05G15KT 3000 TSRA FEW025CB BKN040